sensor_id;sensor_type;location;lat;lon;timestamp;P1;durP1;ratioP1;P2;durP2;ratioP2
31660;SDS011;18267;52.234;7.444;2023-06-14T00:01:01;2.25;;;1.10;;
31660;SDS011;18267;52.234;7.444;2023-06-14T00:03:28;1.42;;;1.13;;
31660;SDS011;18267;52.234;7.444;2023-06-14T00:05:54;4.80;;;1.83;;
31660;SDS011;18267;52.234;7.444;2023-06-14T00:08:20;4.38;;;1.75;;
31660;SDS011;18267;52.234;7.444;2023-06-14T00:10:47;4.65;;;1.38;;
31660;SDS011;18267;52.234;7.444;2023-06-14T00:13:13;5.72;;;1.33;;
31660;SDS011;18267;52.234;7.444;2023-06-14T00:15:39;1.55;;;1.25;;
31660;SDS011;18267;52.234;7.444;2023-06-14T00:18:05;3.60;;;1.60;;
31660;SDS011;18267;52.234;7.444;2023-06-14T00:20:32;3.67;;;1.40;;
31660;SDS011;18267;52.234;7.444;2023-06-14T00:23:00;6.00;;;1.50;;
31660;SDS011;18267;52.234;7.444;2023-06-14T00:25:26;2.83;;;1.63;;
31660;SDS011;18267;52.234;7.444;2023-06-14T00:27:53;10.30;;;1.58;;
31660;SDS011;18267;52.234;7.444;2023-06-14T00:30:19;1.63;;;1.40;;
31660;SDS011;18267;52.234;7.444;2023-06-14T00:32:45;3.35;;;1.73;;
31660;SDS011;18267;52.234;7.444;2023-06-14T00:35:12;3.22;;;1.63;;
31660;SDS011;18267;52.234;7.444;2023-06-14T00:37:38;5.65;;;2.00;;
31660;SDS011;18267;52.234;7.444;2023-06-14T00:40:04;5.90;;;1.48;;
31660;SDS011;18267;52.234;7.444;2023-06-14T00:42:30;1.40;;;1.30;;
31660;SDS011;18267;52.234;7.444;2023-06-14T00:44:55;1.90;;;1.42;;
31660;SDS011;18267;52.234;7.444;2023-06-14T00:47:21;3.47;;;1.27;;
31660;SDS011;18267;52.234;7.444;2023-06-14T00:49:47;2.53;;;1.50;;
31660;SDS011;18267;52.234;7.444;2023-06-14T00:52:14;2.92;;;1.70;;
31660;SDS011;18267;52.234;7.444;2023-06-14T00:54:41;1.50;;;1.40;;
31660;SDS011;18267;52.234;7.444;2023-06-14T00:57:07;5.97;;;1.83;;
31660;SDS011;18267;52.234;7.444;2023-06-14T00:59:35;1.98;;;1.45;;
31660;SDS011;18267;52.234;7.444;2023-06-14T01:02:06;10.15;;;1.80;;
31660;SDS011;18267;52.234;7.444;2023-06-14T01:04:32;9.50;;;1.30;;
31660;SDS011;18267;52.234;7.444;2023-06-14T01:07:20;2.42;;;1.63;;
31660;SDS011;18267;52.234;7.444;2023-06-14T01:10:04;4.10;;;1.45;;
31660;SDS011;18267;52.234;7.444;2023-06-14T01:15:21;5.78;;;1.70;;
31660;SDS011;18267;52.234;7.444;2023-06-14T01:17:49;3.85;;;1.55;;
31660;SDS011;18267;52.234;7.444;2023-06-14T01:20:16;6.70;;;1.70;;
31660;SDS011;18267;52.234;7.444;2023-06-14T01:22:51;4.28;;;1.98;;
31660;SDS011;18267;52.234;7.444;2023-06-14T01:25:18;2.60;;;1.40;;
31660;SDS011;18267;52.234;7.444;2023-06-14T01:27:52;7.22;;;1.63;;
31660;SDS011;18267;52.234;7.444;2023-06-14T01:30:20;4.72;;;1.58;;
31660;SDS011;18267;52.234;7.444;2023-06-14T01:32:47;3.95;;;1.83;;
31660;SDS011;18267;52.234;7.444;2023-06-14T01:35:15;2.15;;;1.48;;
31660;SDS011;18267;52.234;7.444;2023-06-14T01:37:41;2.35;;;1.30;;
31660;SDS011;18267;52.234;7.444;2023-06-14T01:40:08;2.38;;;1.35;;
31660;SDS011;18267;52.234;7.444;2023-06-14T01:42:36;8.55;;;1.85;;
31660;SDS011;18267;52.234;7.444;2023-06-14T01:45:04;6.28;;;1.70;;
31660;SDS011;18267;52.234;7.444;2023-06-14T01:47:31;2.15;;;1.77;;
31660;SDS011;18267;52.234;7.444;2023-06-14T01:49:57;3.63;;;1.63;;
31660;SDS011;18267;52.234;7.444;2023-06-14T01:52:23;3.65;;;1.65;;
31660;SDS011;18267;52.234;7.444;2023-06-14T01:54:49;5.45;;;1.80;;
31660;SDS011;18267;52.234;7.444;2023-06-14T01:57:15;3.88;;;1.40;;
31660;SDS011;18267;52.234;7.444;2023-06-14T01:59:41;2.80;;;1.45;;
31660;SDS011;18267;52.234;7.444;2023-06-14T02:02:06;3.38;;;1.70;;
31660;SDS011;18267;52.234;7.444;2023-06-14T02:04:32;1.73;;;1.60;;
31660;SDS011;18267;52.234;7.444;2023-06-14T02:06:58;3.28;;;1.90;;
31660;SDS011;18267;52.234;7.444;2023-06-14T02:09:24;6.45;;;1.67;;
31660;SDS011;18267;52.234;7.444;2023-06-14T02:11:50;6.68;;;1.45;;
31660;SDS011;18267;52.234;7.444;2023-06-14T02:14:15;6.38;;;1.55;;
31660;SDS011;18267;52.234;7.444;2023-06-14T02:16:42;2.60;;;1.60;;
31660;SDS011;18267;52.234;7.444;2023-06-14T02:19:13;4.28;;;1.45;;
31660;SDS011;18267;52.234;7.444;2023-06-14T02:21:43;2.60;;;1.80;;
31660;SDS011;18267;52.234;7.444;2023-06-14T02:24:09;7.00;;;2.00;;
31660;SDS011;18267;52.234;7.444;2023-06-14T02:26:35;2.08;;;1.38;;
31660;SDS011;18267;52.234;7.444;2023-06-14T02:29:03;2.45;;;1.85;;
31660;SDS011;18267;52.234;7.444;2023-06-14T02:31:30;6.18;;;1.92;;
31660;SDS011;18267;52.234;7.444;2023-06-14T02:34:00;2.72;;;1.30;;
31660;SDS011;18267;52.234;7.444;2023-06-14T02:36:25;2.20;;;1.55;;
31660;SDS011;18267;52.234;7.444;2023-06-14T02:38:51;8.45;;;1.80;;
31660;SDS011;18267;52.234;7.444;2023-06-14T02:41:19;4.50;;;1.77;;
31660;SDS011;18267;52.234;7.444;2023-06-14T02:43:44;3.45;;;1.77;;
31660;SDS011;18267;52.234;7.444;2023-06-14T02:46:10;2.22;;;1.58;;
31660;SDS011;18267;52.234;7.444;2023-06-14T02:48:36;3.90;;;1.65;;
31660;SDS011;18267;52.234;7.444;2023-06-14T02:51:01;3.08;;;1.60;;
31660;SDS011;18267;52.234;7.444;2023-06-14T02:53:27;2.83;;;1.48;;
31660;SDS011;18267;52.234;7.444;2023-06-14T02:55:53;3.15;;;1.95;;
31660;SDS011;18267;52.234;7.444;2023-06-14T02:58:20;5.47;;;1.70;;
31660;SDS011;18267;52.234;7.444;2023-06-14T03:00:46;5.32;;;1.85;;
31660;SDS011;18267;52.234;7.444;2023-06-14T03:03:11;4.40;;;1.63;;
31660;SDS011;18267;52.234;7.444;2023-06-14T03:05:43;2.00;;;1.60;;
31660;SDS011;18267;52.234;7.444;2023-06-14T03:08:12;4.03;;;1.92;;
31660;SDS011;18267;52.234;7.444;2023-06-14T03:10:44;2.47;;;1.42;;
31660;SDS011;18267;52.234;7.444;2023-06-14T03:13:11;5.47;;;2.00;;
31660;SDS011;18267;52.234;7.444;2023-06-14T03:15:37;5.70;;;1.67;;
31660;SDS011;18267;52.234;7.444;2023-06-14T03:18:03;2.25;;;1.77;;
31660;SDS011;18267;52.234;7.444;2023-06-14T03:20:29;2.22;;;1.75;;
31660;SDS011;18267;52.234;7.444;2023-06-14T03:22:59;3.75;;;1.60;;
31660;SDS011;18267;52.234;7.444;2023-06-14T03:25:25;4.25;;;1.45;;
31660;SDS011;18267;52.234;7.444;2023-06-14T03:27:54;16.70;;;2.17;;
31660;SDS011;18267;52.234;7.444;2023-06-14T03:30:20;3.55;;;2.00;;
31660;SDS011;18267;52.234;7.444;2023-06-14T03:32:46;2.10;;;1.90;;
31660;SDS011;18267;52.234;7.444;2023-06-14T03:35:12;7.70;;;1.40;;
31660;SDS011;18267;52.234;7.444;2023-06-14T03:37:42;2.38;;;1.83;;
31660;SDS011;18267;52.234;7.444;2023-06-14T03:40:08;6.85;;;1.88;;
31660;SDS011;18267;52.234;7.444;2023-06-14T03:42:34;5.47;;;1.92;;
31660;SDS011;18267;52.234;7.444;2023-06-14T03:44:59;8.07;;;1.83;;
31660;SDS011;18267;52.234;7.444;2023-06-14T03:47:25;13.68;;;1.75;;
31660;SDS011;18267;52.234;7.444;2023-06-14T03:49:52;1.73;;;1.63;;
31660;SDS011;18267;52.234;7.444;2023-06-14T03:52:17;2.88;;;1.92;;
31660;SDS011;18267;52.234;7.444;2023-06-14T03:54:43;4.80;;;1.75;;
31660;SDS011;18267;52.234;7.444;2023-06-14T03:57:09;4.97;;;1.70;;
31660;SDS011;18267;52.234;7.444;2023-06-14T03:59:35;4.45;;;1.35;;
31660;SDS011;18267;52.234;7.444;2023-06-14T04:02:01;4.40;;;1.63;;
31660;SDS011;18267;52.234;7.444;2023-06-14T04:04:27;9.30;;;1.80;;
31660;SDS011;18267;52.234;7.444;2023-06-14T04:06:57;2.85;;;2.00;;
31660;SDS011;18267;52.234;7.444;2023-06-14T04:09:23;4.97;;;1.52;;
31660;SDS011;18267;52.234;7.444;2023-06-14T04:11:50;2.17;;;1.80;;
31660;SDS011;18267;52.234;7.444;2023-06-14T04:14:18;7.15;;;2.05;;
31660;SDS011;18267;52.234;7.444;2023-06-14T04:16:44;3.42;;;1.80;;
31660;SDS011;18267;52.234;7.444;2023-06-14T04:19:11;5.20;;;1.90;;
31660;SDS011;18267;52.234;7.444;2023-06-14T04:21:36;10.45;;;1.92;;
31660;SDS011;18267;52.234;7.444;2023-06-14T04:24:02;4.30;;;2.38;;
31660;SDS011;18267;52.234;7.444;2023-06-14T04:26:28;2.75;;;1.70;;
31660;SDS011;18267;52.234;7.444;2023-06-14T04:28:54;5.97;;;2.20;;
31660;SDS011;18267;52.234;7.444;2023-06-14T04:31:22;5.50;;;1.70;;
31660;SDS011;18267;52.234;7.444;2023-06-14T04:33:50;8.48;;;1.90;;
31660;SDS011;18267;52.234;7.444;2023-06-14T04:36:18;2.55;;;1.70;;
31660;SDS011;18267;52.234;7.444;2023-06-14T04:38:43;4.05;;;1.90;;
31660;SDS011;18267;52.234;7.444;2023-06-14T04:41:14;4.55;;;1.60;;
31660;SDS011;18267;52.234;7.444;2023-06-14T04:43:40;2.42;;;1.67;;
31660;SDS011;18267;52.234;7.444;2023-06-14T04:46:07;2.60;;;1.80;;
31660;SDS011;18267;52.234;7.444;2023-06-14T04:48:36;1.88;;;1.67;;
31660;SDS011;18267;52.234;7.444;2023-06-14T04:51:02;3.38;;;1.77;;
31660;SDS011;18267;52.234;7.444;2023-06-14T04:53:28;1.83;;;1.55;;
31660;SDS011;18267;52.234;7.444;2023-06-14T04:55:54;5.20;;;1.58;;
31660;SDS011;18267;52.234;7.444;2023-06-14T04:58:20;5.13;;;1.48;;
31660;SDS011;18267;52.234;7.444;2023-06-14T05:00:45;1.58;;;1.48;;
31660;SDS011;18267;52.234;7.444;2023-06-14T05:03:11;4.32;;;1.35;;
31660;SDS011;18267;52.234;7.444;2023-06-14T05:05:38;3.25;;;1.83;;
31660;SDS011;18267;52.234;7.444;2023-06-14T05:08:05;7.25;;;2.00;;
31660;SDS011;18267;52.234;7.444;2023-06-14T05:10:30;3.03;;;1.67;;
31660;SDS011;18267;52.234;7.444;2023-06-14T05:12:56;2.58;;;1.77;;
31660;SDS011;18267;52.234;7.444;2023-06-14T05:15:21;4.50;;;1.60;;
31660;SDS011;18267;52.234;7.444;2023-06-14T05:17:50;3.38;;;1.35;;
31660;SDS011;18267;52.234;7.444;2023-06-14T05:20:20;3.47;;;1.60;;
31660;SDS011;18267;52.234;7.444;2023-06-14T05:22:52;10.48;;;2.00;;
31660;SDS011;18267;52.234;7.444;2023-06-14T05:25:21;3.58;;;1.38;;
31660;SDS011;18267;52.234;7.444;2023-06-14T05:27:46;3.65;;;1.55;;
31660;SDS011;18267;52.234;7.444;2023-06-14T05:30:13;2.40;;;1.60;;
31660;SDS011;18267;52.234;7.444;2023-06-14T05:32:40;5.72;;;1.65;;
31660;SDS011;18267;52.234;7.444;2023-06-14T05:35:05;1.33;;;1.13;;
31660;SDS011;18267;52.234;7.444;2023-06-14T05:37:31;3.25;;;1.55;;
31660;SDS011;18267;52.234;7.444;2023-06-14T05:39:57;5.10;;;1.35;;
31660;SDS011;18267;52.234;7.444;2023-06-14T05:42:23;2.05;;;1.38;;
31660;SDS011;18267;52.234;7.444;2023-06-14T05:44:48;3.78;;;1.35;;
31660;SDS011;18267;52.234;7.444;2023-06-14T05:47:14;2.78;;;1.48;;
31660;SDS011;18267;52.234;7.444;2023-06-14T05:49:40;5.55;;;1.55;;
31660;SDS011;18267;52.234;7.444;2023-06-14T05:52:05;10.73;;;1.70;;
31660;SDS011;18267;52.234;7.444;2023-06-14T05:54:31;4.18;;;1.38;;
31660;SDS011;18267;52.234;7.444;2023-06-14T05:56:57;2.63;;;1.42;;
31660;SDS011;18267;52.234;7.444;2023-06-14T05:59:29;5.70;;;1.63;;
31660;SDS011;18267;52.234;7.444;2023-06-14T06:01:54;8.68;;;1.30;;
31660;SDS011;18267;52.234;7.444;2023-06-14T06:04:20;2.35;;;1.25;;
31660;SDS011;18267;52.234;7.444;2023-06-14T06:06:46;6.28;;;1.15;;
31660;SDS011;18267;52.234;7.444;2023-06-14T06:09:12;4.00;;;1.30;;
31660;SDS011;18267;52.234;7.444;2023-06-14T06:11:39;5.80;;;1.90;;
31660;SDS011;18267;52.234;7.444;2023-06-14T06:14:05;3.90;;;1.27;;
31660;SDS011;18267;52.234;7.444;2023-06-14T06:16:31;1.80;;;1.50;;
31660;SDS011;18267;52.234;7.444;2023-06-14T06:18:57;1.42;;;1.17;;
31660;SDS011;18267;52.234;7.444;2023-06-14T06:21:22;4.68;;;1.55;;
31660;SDS011;18267;52.234;7.444;2023-06-14T06:23:48;1.50;;;1.20;;
31660;SDS011;18267;52.234;7.444;2023-06-14T06:26:13;2.80;;;1.20;;
31660;SDS011;18267;52.234;7.444;2023-06-14T06:28:39;10.80;;;1.85;;
31660;SDS011;18267;52.234;7.444;2023-06-14T06:31:04;2.97;;;1.30;;
31660;SDS011;18267;52.234;7.444;2023-06-14T06:33:30;1.20;;;1.00;;
31660;SDS011;18267;52.234;7.444;2023-06-14T06:35:55;1.55;;;1.05;;
31660;SDS011;18267;52.234;7.444;2023-06-14T06:38:21;3.55;;;1.00;;
31660;SDS011;18267;52.234;7.444;2023-06-14T06:40:46;2.67;;;1.00;;
31660;SDS011;18267;52.234;7.444;2023-06-14T06:43:13;2.75;;;1.30;;
31660;SDS011;18267;52.234;7.444;2023-06-14T06:45:39;5.25;;;1.20;;
31660;SDS011;18267;52.234;7.444;2023-06-14T06:48:05;2.53;;;1.05;;
31660;SDS011;18267;52.234;7.444;2023-06-14T06:50:31;2.42;;;1.45;;
31660;SDS011;18267;52.234;7.444;2023-06-14T06:52:56;4.38;;;1.20;;
31660;SDS011;18267;52.234;7.444;2023-06-14T06:55:22;1.20;;;0.90;;
31660;SDS011;18267;52.234;7.444;2023-06-14T06:57:48;1.65;;;1.17;;
31660;SDS011;18267;52.234;7.444;2023-06-14T07:00:15;4.60;;;1.00;;
31660;SDS011;18267;52.234;7.444;2023-06-14T07:02:41;4.30;;;1.23;;
31660;SDS011;18267;52.234;7.444;2023-06-14T07:05:07;1.20;;;1.00;;
31660;SDS011;18267;52.234;7.444;2023-06-14T07:07:32;1.70;;;1.38;;
31660;SDS011;18267;52.234;7.444;2023-06-14T07:09:58;4.55;;;1.10;;
31660;SDS011;18267;52.234;7.444;2023-06-14T07:12:25;2.00;;;0.95;;
31660;SDS011;18267;52.234;7.444;2023-06-14T07:14:50;5.25;;;1.00;;
31660;SDS011;18267;52.234;7.444;2023-06-14T07:17:16;8.75;;;1.10;;
31660;SDS011;18267;52.234;7.444;2023-06-14T07:19:42;1.05;;;0.70;;
31660;SDS011;18267;52.234;7.444;2023-06-14T07:22:07;2.05;;;1.00;;
31660;SDS011;18267;52.234;7.444;2023-06-14T07:24:33;1.88;;;1.33;;
31660;SDS011;18267;52.234;7.444;2023-06-14T07:27:01;1.10;;;0.90;;
31660;SDS011;18267;52.234;7.444;2023-06-14T07:29:28;1.13;;;0.90;;
31660;SDS011;18267;52.234;7.444;2023-06-14T07:31:53;3.92;;;1.27;;
31660;SDS011;18267;52.234;7.444;2023-06-14T07:34:19;1.85;;;1.00;;
31660;SDS011;18267;52.234;7.444;2023-06-14T07:36:44;3.35;;;1.25;;
31660;SDS011;18267;52.234;7.444;2023-06-14T07:39:11;4.72;;;1.20;;
31660;SDS011;18267;52.234;7.444;2023-06-14T07:41:37;3.25;;;0.90;;
31660;SDS011;18267;52.234;7.444;2023-06-14T07:44:02;3.33;;;1.02;;
31660;SDS011;18267;52.234;7.444;2023-06-14T07:46:28;1.00;;;0.90;;
31660;SDS011;18267;52.234;7.444;2023-06-14T07:48:54;1.20;;;0.90;;
31660;SDS011;18267;52.234;7.444;2023-06-14T07:51:19;1.75;;;1.02;;
31660;SDS011;18267;52.234;7.444;2023-06-14T07:53:46;4.88;;;1.08;;
31660;SDS011;18267;52.234;7.444;2023-06-14T07:56:12;1.27;;;1.10;;
31660;SDS011;18267;52.234;7.444;2023-06-14T07:58:38;3.38;;;0.90;;
31660;SDS011;18267;52.234;7.444;2023-06-14T08:01:03;1.15;;;1.00;;
31660;SDS011;18267;52.234;7.444;2023-06-14T08:03:31;5.40;;;1.20;;
31660;SDS011;18267;52.234;7.444;2023-06-14T08:05:57;2.22;;;1.00;;
31660;SDS011;18267;52.234;7.444;2023-06-14T08:08:23;2.22;;;0.80;;
31660;SDS011;18267;52.234;7.444;2023-06-14T08:10:48;2.65;;;0.90;;
31660;SDS011;18267;52.234;7.444;2023-06-14T08:13:14;2.42;;;1.20;;
31660;SDS011;18267;52.234;7.444;2023-06-14T08:15:39;4.32;;;1.23;;
31660;SDS011;18267;52.234;7.444;2023-06-14T08:18:05;1.20;;;1.10;;
31660;SDS011;18267;52.234;7.444;2023-06-14T08:20:31;2.25;;;1.05;;
31660;SDS011;18267;52.234;7.444;2023-06-14T08:22:57;0.88;;;0.73;;
31660;SDS011;18267;52.234;7.444;2023-06-14T08:25:23;5.07;;;1.00;;
31660;SDS011;18267;52.234;7.444;2023-06-14T08:27:48;2.22;;;1.30;;
31660;SDS011;18267;52.234;7.444;2023-06-14T08:30:15;4.72;;;1.02;;
31660;SDS011;18267;52.234;7.444;2023-06-14T08:32:42;3.17;;;1.15;;
31660;SDS011;18267;52.234;7.444;2023-06-14T08:35:08;3.13;;;0.90;;
31660;SDS011;18267;52.234;7.444;2023-06-14T08:37:37;10.30;;;0.95;;
31660;SDS011;18267;52.234;7.444;2023-06-14T08:40:04;1.05;;;0.80;;
31660;SDS011;18267;52.234;7.444;2023-06-14T08:42:42;0.75;;;0.75;;
31660;SDS011;18267;52.234;7.444;2023-06-14T08:45:08;1.98;;;1.05;;
31660;SDS011;18267;52.234;7.444;2023-06-14T08:47:34;2.63;;;1.02;;
31660;SDS011;18267;52.234;7.444;2023-06-14T08:50:01;3.85;;;0.90;;
31660;SDS011;18267;52.234;7.444;2023-06-14T08:52:29;3.50;;;0.77;;
31660;SDS011;18267;52.234;7.444;2023-06-14T08:55:05;2.60;;;0.70;;
31660;SDS011;18267;52.234;7.444;2023-06-14T08:57:31;3.33;;;0.85;;
31660;SDS011;18267;52.234;7.444;2023-06-14T09:00:02;1.85;;;0.93;;
31660;SDS011;18267;52.234;7.444;2023-06-14T09:02:36;8.48;;;0.90;;
31660;SDS011;18267;52.234;7.444;2023-06-14T09:05:02;1.13;;;0.80;;
31660;SDS011;18267;52.234;7.444;2023-06-14T09:07:28;4.55;;;0.70;;
31660;SDS011;18267;52.234;7.444;2023-06-14T09:10:13;2.70;;;0.80;;
31660;SDS011;18267;52.234;7.444;2023-06-14T09:15:06;1.03;;;0.60;;
31660;SDS011;18267;52.234;7.444;2023-06-14T09:17:33;0.93;;;0.73;;
31660;SDS011;18267;52.234;7.444;2023-06-14T09:20:03;8.27;;;1.05;;
31660;SDS011;18267;52.234;7.444;2023-06-14T09:22:36;1.15;;;0.60;;
31660;SDS011;18267;52.234;7.444;2023-06-14T09:25:03;3.83;;;0.70;;
31660;SDS011;18267;52.234;7.444;2023-06-14T09:27:29;0.75;;;0.75;;
31660;SDS011;18267;52.234;7.444;2023-06-14T09:29:55;1.23;;;0.50;;
31660;SDS011;18267;52.234;7.444;2023-06-14T09:32:21;2.38;;;0.70;;
31660;SDS011;18267;52.234;7.444;2023-06-14T09:34:47;1.58;;;0.70;;
31660;SDS011;18267;52.234;7.444;2023-06-14T09:37:13;1.08;;;0.60;;
31660;SDS011;18267;52.234;7.444;2023-06-14T09:39:55;0.88;;;0.70;;
31660;SDS011;18267;52.234;7.444;2023-06-14T09:42:20;0.50;;;0.50;;
31660;SDS011;18267;52.234;7.444;2023-06-14T09:44:48;4.40;;;0.77;;
31660;SDS011;18267;52.234;7.444;2023-06-14T09:47:14;0.57;;;0.50;;
31660;SDS011;18267;52.234;7.444;2023-06-14T09:49:41;3.30;;;0.65;;
31660;SDS011;18267;52.234;7.444;2023-06-14T09:52:10;1.13;;;0.70;;
31660;SDS011;18267;52.234;7.444;2023-06-14T09:54:37;1.17;;;0.60;;
31660;SDS011;18267;52.234;7.444;2023-06-14T09:57:07;2.25;;;0.82;;
31660;SDS011;18267;52.234;7.444;2023-06-14T09:59:38;1.30;;;1.02;;
31660;SDS011;18267;52.234;7.444;2023-06-14T10:02:11;0.77;;;0.77;;
31660;SDS011;18267;52.234;7.444;2023-06-14T10:04:46;4.97;;;1.00;;
31660;SDS011;18267;52.234;7.444;2023-06-14T10:07:22;1.88;;;1.13;;
31660;SDS011;18267;52.234;7.444;2023-06-14T10:09:51;5.00;;;0.85;;
31660;SDS011;18267;52.234;7.444;2023-06-14T10:12:18;3.65;;;0.90;;
31660;SDS011;18267;52.234;7.444;2023-06-14T10:14:50;6.22;;;1.20;;
31660;SDS011;18267;52.234;7.444;2023-06-14T10:17:23;2.75;;;0.80;;
31660;SDS011;18267;52.234;7.444;2023-06-14T10:20:06;6.05;;;0.95;;
31660;SDS011;18267;52.234;7.444;2023-06-14T10:22:51;2.40;;;1.15;;
31660;SDS011;18267;52.234;7.444;2023-06-14T10:25:30;1.17;;;0.90;;
31660;SDS011;18267;52.234;7.444;2023-06-14T10:28:30;3.50;;;1.10;;
31660;SDS011;18267;52.234;7.444;2023-06-14T10:33:30;3.38;;;1.10;;
31660;SDS011;18267;52.234;7.444;2023-06-14T10:38:43;3.90;;;1.50;;
31660;SDS011;18267;52.234;7.444;2023-06-14T10:41:08;1.13;;;1.02;;
31660;SDS011;18267;52.234;7.444;2023-06-14T10:43:34;1.75;;;0.80;;
31660;SDS011;18267;52.234;7.444;2023-06-14T10:46:18;4.43;;;1.25;;
31660;SDS011;18267;52.234;7.444;2023-06-14T10:48:48;3.00;;;0.90;;
31660;SDS011;18267;52.234;7.444;2023-06-14T10:51:22;5.68;;;1.13;;
31660;SDS011;18267;52.234;7.444;2023-06-14T10:53:48;1.52;;;0.90;;
31660;SDS011;18267;52.234;7.444;2023-06-14T10:56:26;1.27;;;0.90;;
31660;SDS011;18267;52.234;7.444;2023-06-14T10:58:56;1.00;;;0.88;;
31660;SDS011;18267;52.234;7.444;2023-06-14T11:01:32;4.78;;;0.82;;
31660;SDS011;18267;52.234;7.444;2023-06-14T11:04:09;1.17;;;0.90;;
31660;SDS011;18267;52.234;7.444;2023-06-14T11:06:45;0.80;;;0.80;;
31660;SDS011;18267;52.234;7.444;2023-06-14T11:12:26;2.33;;;0.80;;
31660;SDS011;18267;52.234;7.444;2023-06-14T11:14:56;1.55;;;0.80;;
31660;SDS011;18267;52.234;7.444;2023-06-14T11:17:22;8.13;;;0.90;;
31660;SDS011;18267;52.234;7.444;2023-06-14T11:19:47;0.80;;;0.80;;
31660;SDS011;18267;52.234;7.444;2023-06-14T11:22:13;1.65;;;0.90;;
31660;SDS011;18267;52.234;7.444;2023-06-14T11:24:40;9.50;;;1.00;;
31660;SDS011;18267;52.234;7.444;2023-06-14T11:27:05;1.10;;;0.85;;
31660;SDS011;18267;52.234;7.444;2023-06-14T11:29:31;1.35;;;0.98;;
31660;SDS011;18267;52.234;7.444;2023-06-14T11:31:56;3.83;;;0.80;;
31660;SDS011;18267;52.234;7.444;2023-06-14T11:34:22;1.73;;;0.90;;
31660;SDS011;18267;52.234;7.444;2023-06-14T11:36:47;1.50;;;0.90;;
31660;SDS011;18267;52.234;7.444;2023-06-14T11:39:13;4.07;;;0.90;;
31660;SDS011;18267;52.234;7.444;2023-06-14T11:41:40;1.20;;;1.00;;
31660;SDS011;18267;52.234;7.444;2023-06-14T11:44:07;0.88;;;0.77;;
31660;SDS011;18267;52.234;7.444;2023-06-14T11:46:33;3.15;;;0.80;;
31660;SDS011;18267;52.234;7.444;2023-06-14T11:48:59;4.65;;;0.80;;
31660;SDS011;18267;52.234;7.444;2023-06-14T11:51:28;3.17;;;1.00;;
31660;SDS011;18267;52.234;7.444;2023-06-14T11:54:01;2.90;;;0.75;;
31660;SDS011;18267;52.234;7.444;2023-06-14T11:56:27;1.73;;;0.77;;
31660;SDS011;18267;52.234;7.444;2023-06-14T11:58:53;4.53;;;1.25;;
31660;SDS011;18267;52.234;7.444;2023-06-14T12:01:22;1.33;;;1.00;;
31660;SDS011;18267;52.234;7.444;2023-06-14T12:03:51;0.70;;;0.50;;
31660;SDS011;18267;52.234;7.444;2023-06-14T12:06:25;3.70;;;0.90;;
31660;SDS011;18267;52.234;7.444;2023-06-14T12:08:55;2.75;;;0.82;;
31660;SDS011;18267;52.234;7.444;2023-06-14T12:11:21;1.63;;;0.75;;
31660;SDS011;18267;52.234;7.444;2023-06-14T12:13:46;1.30;;;0.82;;
31660;SDS011;18267;52.234;7.444;2023-06-14T12:16:14;6.85;;;0.90;;
31660;SDS011;18267;52.234;7.444;2023-06-14T12:18:40;0.98;;;0.90;;
31660;SDS011;18267;52.234;7.444;2023-06-14T12:21:08;2.58;;;1.00;;
31660;SDS011;18267;52.234;7.444;2023-06-14T12:23:53;0.90;;;0.80;;
31660;SDS011;18267;52.234;7.444;2023-06-14T12:26:19;1.33;;;0.80;;
31660;SDS011;18267;52.234;7.444;2023-06-14T12:28:46;1.85;;;0.82;;
31660;SDS011;18267;52.234;7.444;2023-06-14T12:31:12;1.02;;;0.60;;
31660;SDS011;18267;52.234;7.444;2023-06-14T12:33:42;1.00;;;0.60;;
31660;SDS011;18267;52.234;7.444;2023-06-14T12:36:08;1.17;;;0.80;;
31660;SDS011;18267;52.234;7.444;2023-06-14T12:38:35;1.00;;;0.70;;
31660;SDS011;18267;52.234;7.444;2023-06-14T12:41:01;0.60;;;0.60;;
31660;SDS011;18267;52.234;7.444;2023-06-14T12:43:27;2.72;;;0.85;;
31660;SDS011;18267;52.234;7.444;2023-06-14T12:45:53;7.30;;;0.95;;
31660;SDS011;18267;52.234;7.444;2023-06-14T12:48:19;1.05;;;0.60;;
31660;SDS011;18267;52.234;7.444;2023-06-14T12:50:45;2.05;;;0.85;;
31660;SDS011;18267;52.234;7.444;2023-06-14T12:53:10;0.90;;;0.60;;
31660;SDS011;18267;52.234;7.444;2023-06-14T12:55:36;4.05;;;1.02;;
31660;SDS011;18267;52.234;7.444;2023-06-14T12:58:01;0.70;;;0.70;;
31660;SDS011;18267;52.234;7.444;2023-06-14T13:00:27;1.25;;;0.80;;
31660;SDS011;18267;52.234;7.444;2023-06-14T13:02:55;5.30;;;0.82;;
31660;SDS011;18267;52.234;7.444;2023-06-14T13:05:20;2.42;;;1.10;;
31660;SDS011;18267;52.234;7.444;2023-06-14T13:07:46;2.55;;;0.57;;
31660;SDS011;18267;52.234;7.444;2023-06-14T13:10:12;0.63;;;0.60;;
31660;SDS011;18267;52.234;7.444;2023-06-14T13:12:37;0.50;;;0.43;;
31660;SDS011;18267;52.234;7.444;2023-06-14T13:15:03;1.23;;;0.80;;
31660;SDS011;18267;52.234;7.444;2023-06-14T13:17:29;1.27;;;0.73;;
31660;SDS011;18267;52.234;7.444;2023-06-14T13:19:54;2.80;;;0.70;;
31660;SDS011;18267;52.234;7.444;2023-06-14T13:22:20;2.10;;;0.77;;
31660;SDS011;18267;52.234;7.444;2023-06-14T13:24:46;1.30;;;0.60;;
31660;SDS011;18267;52.234;7.444;2023-06-14T13:27:12;1.10;;;0.77;;
31660;SDS011;18267;52.234;7.444;2023-06-14T13:29:40;8.02;;;0.70;;
31660;SDS011;18267;52.234;7.444;2023-06-14T13:32:05;2.28;;;0.90;;
31660;SDS011;18267;52.234;7.444;2023-06-14T13:34:31;0.60;;;0.60;;
31660;SDS011;18267;52.234;7.444;2023-06-14T13:36:57;1.17;;;0.70;;
31660;SDS011;18267;52.234;7.444;2023-06-14T13:39:24;2.00;;;0.93;;
31660;SDS011;18267;52.234;7.444;2023-06-14T13:41:50;0.70;;;0.70;;
31660;SDS011;18267;52.234;7.444;2023-06-14T13:44:15;3.60;;;0.90;;
31660;SDS011;18267;52.234;7.444;2023-06-14T13:46:43;0.90;;;0.60;;
31660;SDS011;18267;52.234;7.444;2023-06-14T13:49:09;1.27;;;1.00;;
31660;SDS011;18267;52.234;7.444;2023-06-14T13:51:35;1.08;;;0.70;;
31660;SDS011;18267;52.234;7.444;2023-06-14T13:54:01;0.80;;;0.60;;
31660;SDS011;18267;52.234;7.444;2023-06-14T13:56:27;2.97;;;0.63;;
31660;SDS011;18267;52.234;7.444;2023-06-14T13:58:52;1.45;;;0.80;;
31660;SDS011;18267;52.234;7.444;2023-06-14T14:01:18;6.68;;;0.70;;
31660;SDS011;18267;52.234;7.444;2023-06-14T14:03:48;3.90;;;0.90;;
31660;SDS011;18267;52.234;7.444;2023-06-14T14:06:15;0.73;;;0.57;;
31660;SDS011;18267;52.234;7.444;2023-06-14T14:08:41;0.55;;;0.52;;
31660;SDS011;18267;52.234;7.444;2023-06-14T14:11:07;0.60;;;0.60;;
31660;SDS011;18267;52.234;7.444;2023-06-14T14:13:33;1.48;;;0.77;;
31660;SDS011;18267;52.234;7.444;2023-06-14T14:16:01;3.75;;;0.80;;
31660;SDS011;18267;52.234;7.444;2023-06-14T14:18:27;1.10;;;0.73;;
31660;SDS011;18267;52.234;7.444;2023-06-14T14:20:53;2.03;;;0.73;;
31660;SDS011;18267;52.234;7.444;2023-06-14T14:23:19;7.50;;;0.90;;
31660;SDS011;18267;52.234;7.444;2023-06-14T14:25:45;2.10;;;0.60;;
31660;SDS011;18267;52.234;7.444;2023-06-14T14:28:11;1.75;;;0.90;;
31660;SDS011;18267;52.234;7.444;2023-06-14T14:30:38;3.92;;;0.80;;
31660;SDS011;18267;52.234;7.444;2023-06-14T14:33:05;6.35;;;0.98;;
31660;SDS011;18267;52.234;7.444;2023-06-14T14:35:31;1.73;;;1.00;;
31660;SDS011;18267;52.234;7.444;2023-06-14T14:37:57;1.25;;;0.60;;
31660;SDS011;18267;52.234;7.444;2023-06-14T14:40:22;0.70;;;0.65;;
31660;SDS011;18267;52.234;7.444;2023-06-14T14:42:48;3.92;;;1.67;;
31660;SDS011;18267;52.234;7.444;2023-06-14T14:45:14;0.93;;;0.60;;
31660;SDS011;18267;52.234;7.444;2023-06-14T14:47:39;0.82;;;0.82;;
31660;SDS011;18267;52.234;7.444;2023-06-14T14:50:05;3.05;;;1.13;;
31660;SDS011;18267;52.234;7.444;2023-06-14T14:52:34;3.30;;;0.73;;
31660;SDS011;18267;52.234;7.444;2023-06-14T14:55:00;0.82;;;0.82;;
31660;SDS011;18267;52.234;7.444;2023-06-14T14:57:26;3.08;;;0.65;;
31660;SDS011;18267;52.234;7.444;2023-06-14T14:59:51;0.85;;;0.68;;
31660;SDS011;18267;52.234;7.444;2023-06-14T15:02:17;1.42;;;1.02;;